sensor_id;sensor_type;location;lat;lon;timestamp;pressure;altitude;pressure_sealevel;temperature;humidity
73558;BME280;61829;53.286;10.434;2023-09-19T00:01:29;100166.34;;;17.55;87.21
73558;BME280;61829;53.286;10.434;2023-09-19T00:03:57;100160.56;;;17.51;87.47
73558;BME280;61829;53.286;10.434;2023-09-19T00:06:24;100165.69;;;17.47;87.81
73558;BME280;61829;53.286;10.434;2023-09-19T00:08:52;100168.91;;;17.44;87.97
73558;BME280;61829;53.286;10.434;2023-09-19T00:11:30;100165.38;;;17.44;87.90
73558;BME280;61829;53.286;10.434;2023-09-19T00:13:56;100166.91;;;17.40;88.21
73558;BME280;61829;53.286;10.434;2023-09-19T00:16:25;100160.31;;;17.36;88.36
73558;BME280;61829;53.286;10.434;2023-09-19T00:18:51;100164.59;;;17.32;88.49
73558;BME280;61829;53.286;10.434;2023-09-19T00:21:17;100175.97;;;17.28;88.84
73558;BME280;61829;53.286;10.434;2023-09-19T00:23:44;100167.47;;;17.25;89.09
73558;BME280;61829;53.286;10.434;2023-09-19T00:26:10;100168.78;;;17.22;89.06
73558;BME280;61829;53.286;10.434;2023-09-19T00:28:36;100179.91;;;17.21;89.24
73558;BME280;61829;53.286;10.434;2023-09-19T00:31:02;100179.34;;;17.19;89.48
73558;BME280;61829;53.286;10.434;2023-09-19T00:33:28;100170.81;;;17.15;89.50
73558;BME280;61829;53.286;10.434;2023-09-19T00:35:56;100174.53;;;17.09;90.07
73558;BME280;61829;53.286;10.434;2023-09-19T00:38:27;100171.25;;;17.07;90.27
73558;BME280;61829;53.286;10.434;2023-09-19T00:40:54;100178.56;;;17.06;90.10
73558;BME280;61829;53.286;10.434;2023-09-19T00:43:29;100187.00;;;17.05;90.25
73558;BME280;61829;53.286;10.434;2023-09-19T00:45:56;100193.25;;;17.05;90.28
73558;BME280;61829;53.286;10.434;2023-09-19T00:48:23;100194.34;;;17.04;90.55
73558;BME280;61829;53.286;10.434;2023-09-19T00:50:51;100187.22;;;17.03;90.76
73558;BME280;61829;53.286;10.434;2023-09-19T00:53:19;100194.81;;;17.01;91.13
73558;BME280;61829;53.286;10.434;2023-09-19T00:55:47;100196.69;;;17.01;91.00
73558;BME280;61829;53.286;10.434;2023-09-19T00:58:13;100188.41;;;17.08;90.78
73558;BME280;61829;53.286;10.434;2023-09-19T01:00:40;100182.97;;;17.08;90.79
73558;BME280;61829;53.286;10.434;2023-09-19T01:03:06;100187.47;;;17.02;90.86
73558;BME280;61829;53.286;10.434;2023-09-19T01:05:33;100199.09;;;16.97;91.19
73558;BME280;61829;53.286;10.434;2023-09-19T01:07:58;100199.69;;;16.99;90.99
73558;BME280;61829;53.286;10.434;2023-09-19T01:10:25;100198.59;;;17.00;90.98
73558;BME280;61829;53.286;10.434;2023-09-19T01:21:38;100202.00;;;17.08;90.66
73558;BME280;61829;53.286;10.434;2023-09-19T01:29:39;100206.47;;;17.14;90.06
73558;BME280;61829;53.286;10.434;2023-09-19T01:32:06;100208.38;;;17.13;89.58
73558;BME280;61829;53.286;10.434;2023-09-19T01:34:54;100204.59;;;17.14;89.94
73558;BME280;61829;53.286;10.434;2023-09-19T01:37:22;100208.13;;;17.15;89.67
73558;BME280;61829;53.286;10.434;2023-09-19T01:40:12;100210.16;;;17.36;88.24
73558;BME280;61829;53.286;10.434;2023-09-19T01:48:46;100214.13;;;17.45;86.96
73558;BME280;61829;53.286;10.434;2023-09-19T01:54:16;100215.78;;;17.46;86.69
73558;BME280;61829;53.286;10.434;2023-09-19T01:58:07;100215.19;;;17.27;87.30
73558;BME280;61829;53.286;10.434;2023-09-19T02:00:03;100215.78;;;17.30;87.31
73558;BME280;61829;53.286;10.434;2023-09-19T02:02:40;100218.97;;;17.26;87.15
73558;BME280;61829;53.286;10.434;2023-09-19T02:05:08;100215.72;;;17.13;87.66
73558;BME280;61829;53.286;10.434;2023-09-19T02:07:34;100226.25;;;17.09;88.19
73558;BME280;61829;53.286;10.434;2023-09-19T02:10:07;100216.19;;;17.10;88.12
73558;BME280;61829;53.286;10.434;2023-09-19T02:12:35;100222.59;;;17.03;87.82
73558;BME280;61829;53.286;10.434;2023-09-19T02:15:02;100226.41;;;17.02;87.48
73558;BME280;61829;53.286;10.434;2023-09-19T02:17:29;100223.91;;;17.01;87.49
73558;BME280;61829;53.286;10.434;2023-09-19T02:19:56;100230.09;;;16.96;87.96
73558;BME280;61829;53.286;10.434;2023-09-19T02:22:22;100228.69;;;16.94;87.53
73558;BME280;61829;53.286;10.434;2023-09-19T02:24:48;100240.19;;;16.96;87.57
73558;BME280;61829;53.286;10.434;2023-09-19T02:27:14;100244.19;;;16.93;87.45
73558;BME280;61829;53.286;10.434;2023-09-19T02:29:42;100241.47;;;16.93;87.55
73558;BME280;61829;53.286;10.434;2023-09-19T02:32:08;100239.69;;;16.99;87.35
73558;BME280;61829;53.286;10.434;2023-09-19T02:34:35;100253.41;;;16.92;87.34
73558;BME280;61829;53.286;10.434;2023-09-19T02:37:06;100249.91;;;16.80;87.77
73558;BME280;61829;53.286;10.434;2023-09-19T02:43:38;100253.25;;;17.11;86.02
73558;BME280;61829;53.286;10.434;2023-09-19T02:46:04;100259.75;;;17.10;85.78
73558;BME280;61829;53.286;10.434;2023-09-19T02:48:31;100270.91;;;17.08;85.73
73558;BME280;61829;53.286;10.434;2023-09-19T02:50:58;100257.28;;;17.08;85.88
73558;BME280;61829;53.286;10.434;2023-09-19T02:53:25;100253.25;;;17.11;86.00
73558;BME280;61829;53.286;10.434;2023-09-19T02:55:51;100261.16;;;17.12;85.68
73558;BME280;61829;53.286;10.434;2023-09-19T02:58:18;100266.13;;;17.15;85.51
73558;BME280;61829;53.286;10.434;2023-09-19T03:00:44;100264.81;;;17.18;85.35
73558;BME280;61829;53.286;10.434;2023-09-19T03:03:13;100252.06;;;17.18;84.99
73558;BME280;61829;53.286;10.434;2023-09-19T03:05:39;100245.72;;;16.89;86.22
73558;BME280;61829;53.286;10.434;2023-09-19T03:08:06;100249.91;;;16.80;86.44
73558;BME280;61829;53.286;10.434;2023-09-19T03:10:32;100252.94;;;16.95;85.75
73558;BME280;61829;53.286;10.434;2023-09-19T03:12:58;100248.25;;;16.79;86.42
73558;BME280;61829;53.286;10.434;2023-09-19T03:15:27;100247.03;;;16.75;87.01
73558;BME280;61829;53.286;10.434;2023-09-19T03:17:53;100247.88;;;16.75;86.13
73558;BME280;61829;53.286;10.434;2023-09-19T03:20:21;100250.03;;;16.73;86.34
73558;BME280;61829;53.286;10.434;2023-09-19T03:22:48;100252.75;;;16.73;85.67
73558;BME280;61829;53.286;10.434;2023-09-19T03:25:14;100256.03;;;16.75;85.31
73558;BME280;61829;53.286;10.434;2023-09-19T03:27:40;100269.44;;;16.77;84.78
73558;BME280;61829;53.286;10.434;2023-09-19T03:30:07;100256.03;;;16.75;84.73
73558;BME280;61829;53.286;10.434;2023-09-19T03:32:35;100271.09;;;16.78;85.01
73558;BME280;61829;53.286;10.434;2023-09-19T03:35:02;100278.66;;;16.76;84.96
73558;BME280;61829;53.286;10.434;2023-09-19T03:37:31;100280.50;;;16.75;84.12
73558;BME280;61829;53.286;10.434;2023-09-19T03:39:58;100283.22;;;16.75;83.99
73558;BME280;61829;53.286;10.434;2023-09-19T03:42:24;100286.44;;;16.72;82.87
73558;BME280;61829;53.286;10.434;2023-09-19T03:44:52;100287.75;;;16.70;82.45
73558;BME280;61829;53.286;10.434;2023-09-19T03:47:18;100287.06;;;16.63;81.14
73558;BME280;61829;53.286;10.434;2023-09-19T03:49:47;100287.06;;;16.63;80.20
73558;BME280;61829;53.286;10.434;2023-09-19T03:52:12;100289.66;;;16.57;79.06
73558;BME280;61829;53.286;10.434;2023-09-19T03:54:38;100286.00;;;16.52;78.13
73558;BME280;61829;53.286;10.434;2023-09-19T03:57:06;100294.03;;;16.47;78.18
73558;BME280;61829;53.286;10.434;2023-09-19T03:59:32;100293.91;;;16.42;77.74
73558;BME280;61829;53.286;10.434;2023-09-19T04:01:58;100295.47;;;16.37;77.89
73558;BME280;61829;53.286;10.434;2023-09-19T04:04:25;100294.72;;;16.30;77.24
73558;BME280;61829;53.286;10.434;2023-09-19T04:06:51;100296.06;;;16.28;75.85
73558;BME280;61829;53.286;10.434;2023-09-19T04:09:17;100303.84;;;16.24;77.07
73558;BME280;61829;53.286;10.434;2023-09-19T04:11:42;100309.13;;;16.19;76.86
73558;BME280;61829;53.286;10.434;2023-09-19T04:14:08;100311.28;;;16.17;77.05
73558;BME280;61829;53.286;10.434;2023-09-19T04:16:34;100317.53;;;16.17;77.64
73558;BME280;61829;53.286;10.434;2023-09-19T04:19:00;100318.63;;;16.16;78.11
73558;BME280;61829;53.286;10.434;2023-09-19T04:21:26;100321.34;;;16.16;78.69
73558;BME280;61829;53.286;10.434;2023-09-19T04:23:53;100327.81;;;16.04;78.24
73558;BME280;61829;53.286;10.434;2023-09-19T04:26:19;100322.47;;;15.97;78.71
73558;BME280;61829;53.286;10.434;2023-09-19T04:28:45;100332.75;;;16.07;78.38
73558;BME280;61829;53.286;10.434;2023-09-19T04:31:11;100330.16;;;16.00;78.50
73558;BME280;61829;53.286;10.434;2023-09-19T04:33:37;100337.00;;;15.91;78.56
73558;BME280;61829;53.286;10.434;2023-09-19T04:36:03;100346.34;;;15.95;77.96
73558;BME280;61829;53.286;10.434;2023-09-19T04:38:31;100338.63;;;15.80;77.98
73558;BME280;61829;53.286;10.434;2023-09-19T04:40:57;100352.88;;;15.76;78.09
73558;BME280;61829;53.286;10.434;2023-09-19T04:43:25;100360.31;;;15.68;78.48
73558;BME280;61829;53.286;10.434;2023-09-19T04:45:51;100361.78;;;15.64;78.84
73558;BME280;61829;53.286;10.434;2023-09-19T04:48:24;100363.88;;;15.62;79.16
73558;BME280;61829;53.286;10.434;2023-09-19T04:50:50;100368.97;;;15.59;79.55
73558;BME280;61829;53.286;10.434;2023-09-19T04:53:17;100374.50;;;15.52;79.55
73558;BME280;61829;53.286;10.434;2023-09-19T04:55:50;100379.09;;;15.52;79.76
73558;BME280;61829;53.286;10.434;2023-09-19T04:58:36;100379.56;;;15.48;80.21
73558;BME280;61829;53.286;10.434;2023-09-19T05:01:02;100379.16;;;15.45;80.26
73558;BME280;61829;53.286;10.434;2023-09-19T05:03:28;100381.88;;;15.45;80.00
73558;BME280;61829;53.286;10.434;2023-09-19T05:05:54;100371.41;;;15.48;80.03
73558;BME280;61829;53.286;10.434;2023-09-19T05:08:20;100377.22;;;15.52;79.99
73558;BME280;61829;53.286;10.434;2023-09-19T05:10:48;100370.72;;;15.53;80.03
73558;BME280;61829;53.286;10.434;2023-09-19T05:13:14;100376.59;;;15.50;80.44
73558;BME280;61829;53.286;10.434;2023-09-19T05:15:40;100383.91;;;15.49;80.81
73558;BME280;61829;53.286;10.434;2023-09-19T05:18:06;100382.84;;;15.50;80.75
73558;BME280;61829;53.286;10.434;2023-09-19T05:20:33;100391.00;;;15.50;80.97
73558;BME280;61829;53.286;10.434;2023-09-19T05:23:02;100381.66;;;15.46;81.26
73558;BME280;61829;53.286;10.434;2023-09-19T05:25:37;100381.66;;;15.46;81.85
73558;BME280;61829;53.286;10.434;2023-09-19T05:28:09;100388.13;;;15.45;81.50
73558;BME280;61829;53.286;10.434;2023-09-19T05:30:37;100400.88;;;15.45;81.26
73558;BME280;61829;53.286;10.434;2023-09-19T05:33:07;100400.88;;;15.45;81.74
73558;BME280;61829;53.286;10.434;2023-09-19T05:35:33;100404.88;;;15.42;81.45
73558;BME280;61829;53.286;10.434;2023-09-19T05:37:59;100409.94;;;15.39;81.52
73558;BME280;61829;53.286;10.434;2023-09-19T05:40:25;100402.88;;;15.38;81.64
73558;BME280;61829;53.286;10.434;2023-09-19T05:42:52;100409.94;;;15.39;81.68
73558;BME280;61829;53.286;10.434;2023-09-19T05:45:17;100411.84;;;15.38;81.76
73558;BME280;61829;53.286;10.434;2023-09-19T05:47:52;100418.34;;;15.37;81.53
73558;BME280;61829;53.286;10.434;2023-09-19T05:50:21;100419.16;;;15.38;81.47
73558;BME280;61829;53.286;10.434;2023-09-19T05:52:54;100412.91;;;15.37;82.24
73558;BME280;61829;53.286;10.434;2023-09-19T05:55:21;100402.63;;;15.39;82.30
73558;BME280;61829;53.286;10.434;2023-09-19T05:57:51;100406.94;;;15.47;82.56
73558;BME280;61829;53.286;10.434;2023-09-19T06:00:21;100405.69;;;15.61;82.25
73558;BME280;61829;53.286;10.434;2023-09-19T06:02:55;100415.16;;;15.77;81.85
73558;BME280;61829;53.286;10.434;2023-09-19T06:05:23;100417.34;;;15.99;81.62
73558;BME280;61829;53.286;10.434;2023-09-19T06:07:49;100414.94;;;16.21;80.57
73558;BME280;61829;53.286;10.434;2023-09-19T06:10:16;100427.31;;;16.47;79.90
73558;BME280;61829;53.286;10.434;2023-09-19T06:12:52;100425.59;;;16.76;78.71
73558;BME280;61829;53.286;10.434;2023-09-19T06:15:18;100432.81;;;17.05;77.22
73558;BME280;61829;53.286;10.434;2023-09-19T06:17:48;100427.25;;;17.36;75.82
73558;BME280;61829;53.286;10.434;2023-09-19T06:20:14;100421.09;;;17.69;74.54
73558;BME280;61829;53.286;10.434;2023-09-19T06:22:44;100419.97;;;17.93;72.75
73558;BME280;61829;53.286;10.434;2023-09-19T06:25:12;100436.75;;;18.31;71.65
73558;BME280;61829;53.286;10.434;2023-09-19T06:27:39;100426.69;;;18.65;70.32
73558;BME280;61829;53.286;10.434;2023-09-19T06:30:09;100428.88;;;18.97;68.81
73558;BME280;61829;53.286;10.434;2023-09-19T06:32:35;100439.16;;;19.28;67.62
73558;BME280;61829;53.286;10.434;2023-09-19T06:35:01;100439.66;;;19.47;66.17
73558;BME280;61829;53.286;10.434;2023-09-19T06:37:29;100437.03;;;19.74;65.31
73558;BME280;61829;53.286;10.434;2023-09-19T06:39:55;100431.97;;;20.10;63.91
73558;BME280;61829;53.286;10.434;2023-09-19T06:42:22;100433.84;;;20.37;63.41
73558;BME280;61829;53.286;10.434;2023-09-19T06:44:49;100449.47;;;20.69;61.67
73558;BME280;61829;53.286;10.434;2023-09-19T06:47:15;100453.56;;;20.98;61.10
73558;BME280;61829;53.286;10.434;2023-09-19T06:49:41;100457.44;;;21.07;59.52
73558;BME280;61829;53.286;10.434;2023-09-19T06:52:10;100456.41;;;21.19;59.31
73558;BME280;61829;53.286;10.434;2023-09-19T06:54:37;100457.28;;;21.24;60.16
73558;BME280;61829;53.286;10.434;2023-09-19T06:57:05;100460.63;;;21.32;58.72
73558;BME280;61829;53.286;10.434;2023-09-19T06:59:31;100439.16;;;21.18;58.04
73558;BME280;61829;53.286;10.434;2023-09-19T07:01:58;100455.63;;;21.23;58.98
73558;BME280;61829;53.286;10.434;2023-09-19T07:04:24;100446.72;;;21.43;58.36
73558;BME280;61829;53.286;10.434;2023-09-19T07:06:50;100447.59;;;21.54;58.11
73558;BME280;61829;53.286;10.434;2023-09-19T07:09:16;100456.13;;;21.58;57.58
73558;BME280;61829;53.286;10.434;2023-09-19T07:11:43;100445.00;;;21.32;58.15
73558;BME280;61829;53.286;10.434;2023-09-19T07:14:08;100452.00;;;21.13;57.91
73558;BME280;61829;53.286;10.434;2023-09-19T07:16:38;100444.09;;;20.79;58.04
73558;BME280;61829;53.286;10.434;2023-09-19T07:19:05;100455.19;;;20.62;58.57
73558;BME280;61829;53.286;10.434;2023-09-19T07:21:32;100454.97;;;20.41;58.93
73558;BME280;61829;53.286;10.434;2023-09-19T07:24:01;100463.84;;;20.27;59.46
73558;BME280;61829;53.286;10.434;2023-09-19T07:26:29;100462.09;;;20.15;60.33
73558;BME280;61829;53.286;10.434;2023-09-19T07:28:55;100468.16;;;19.95;60.76
73558;BME280;61829;53.286;10.434;2023-09-19T07:31:23;100465.56;;;19.84;61.06
73558;BME280;61829;53.286;10.434;2023-09-19T07:33:49;100476.13;;;19.75;61.39
73558;BME280;61829;53.286;10.434;2023-09-19T07:36:15;100475.31;;;19.58;62.00
73558;BME280;61829;53.286;10.434;2023-09-19T07:38:41;100487.19;;;19.46;62.06
73558;BME280;61829;53.286;10.434;2023-09-19T07:41:08;100486.63;;;19.44;62.44
73558;BME280;61829;53.286;10.434;2023-09-19T07:43:35;100480.16;;;19.50;63.26
73558;BME280;61829;53.286;10.434;2023-09-19T07:46:05;100504.50;;;19.52;62.59
73558;BME280;61829;53.286;10.434;2023-09-19T07:48:33;100502.38;;;19.37;63.18
73558;BME280;61829;53.286;10.434;2023-09-19T07:51:07;100508.78;;;19.65;62.18
73558;BME280;61829;53.286;10.434;2023-09-19T07:53:46;100513.88;;;19.56;61.62
73558;BME280;61829;53.286;10.434;2023-09-19T07:56:13;100509.72;;;19.70;61.47
73558;BME280;61829;53.286;10.434;2023-09-19T07:58:43;100501.84;;;19.57;60.42
73558;BME280;61829;53.286;10.434;2023-09-19T08:01:10;100504.19;;;19.48;60.87
73558;BME280;61829;53.286;10.434;2023-09-19T08:03:39;100517.44;;;19.40;61.43
73558;BME280;61829;53.286;10.434;2023-09-19T08:06:10;100528.88;;;19.37;61.27
73558;BME280;61829;53.286;10.434;2023-09-19T08:08:36;100521.91;;;19.46;61.44
73558;BME280;61829;53.286;10.434;2023-09-19T08:11:07;100519.25;;;19.51;61.61
73558;BME280;61829;53.286;10.434;2023-09-19T08:13:49;100510.53;;;19.54;61.76
73558;BME280;61829;53.286;10.434;2023-09-19T08:16:16;100504.78;;;19.72;60.40
73558;BME280;61829;53.286;10.434;2023-09-19T08:18:47;100501.91;;;19.79;59.36
73558;BME280;61829;53.286;10.434;2023-09-19T08:21:13;100505.50;;;20.07;59.15
73558;BME280;61829;53.286;10.434;2023-09-19T08:23:41;100509.03;;;20.29;58.23
73558;BME280;61829;53.286;10.434;2023-09-19T08:26:07;100510.41;;;20.32;57.41
73558;BME280;61829;53.286;10.434;2023-09-19T08:28:36;100523.75;;;20.50;57.16
73558;BME280;61829;53.286;10.434;2023-09-19T08:31:07;100516.72;;;20.54;57.26
73558;BME280;61829;53.286;10.434;2023-09-19T08:33:37;100511.22;;;20.54;56.97
73558;BME280;61829;53.286;10.434;2023-09-19T08:36:04;100511.84;;;20.61;56.31
73558;BME280;61829;53.286;10.434;2023-09-19T08:38:34;100513.03;;;20.71;55.34
73558;BME280;61829;53.286;10.434;2023-09-19T08:41:05;100521.19;;;20.66;55.65
73558;BME280;61829;53.286;10.434;2023-09-19T08:43:32;100522.28;;;20.65;56.67
73558;BME280;61829;53.286;10.434;2023-09-19T08:46:13;100523.19;;;20.48;55.38
73558;BME280;61829;53.286;10.434;2023-09-19T08:48:48;100517.00;;;20.31;55.17
73558;BME280;61829;53.286;10.434;2023-09-19T08:51:43;100534.63;;;20.18;56.33
73558;BME280;61829;53.286;10.434;2023-09-19T08:54:29;100522.25;;;20.10;56.24
73558;BME280;61829;53.286;10.434;2023-09-19T08:57:00;100518.41;;;20.11;56.99
73558;BME280;61829;53.286;10.434;2023-09-19T08:59:33;100528.84;;;20.14;56.30
73558;BME280;61829;53.286;10.434;2023-09-19T09:02:01;100513.09;;;20.27;56.03
73558;BME280;61829;53.286;10.434;2023-09-19T09:04:29;100522.19;;;20.32;56.22
73558;BME280;61829;53.286;10.434;2023-09-19T09:06:56;100515.06;;;20.53;54.71
73558;BME280;61829;53.286;10.434;2023-09-19T09:09:26;100520.72;;;20.74;54.43
73558;BME280;61829;53.286;10.434;2023-09-19T09:11:54;100526.66;;;20.93;54.69
73558;BME280;61829;53.286;10.434;2023-09-19T09:14:22;100520.50;;;21.13;54.56
73558;BME280;61829;53.286;10.434;2023-09-19T09:16:50;100519.53;;;21.29;53.18
73558;BME280;61829;53.286;10.434;2023-09-19T09:19:16;100524.16;;;21.28;51.85
73558;BME280;61829;53.286;10.434;2023-09-19T09:21:50;100527.78;;;21.34;52.36
73558;BME280;61829;53.286;10.434;2023-09-19T09:26:55;100513.53;;;21.32;51.66
73558;BME280;61829;53.286;10.434;2023-09-19T09:29:40;100519.03;;;21.37;52.45
73558;BME280;61829;53.286;10.434;2023-09-19T09:32:20;100524.28;;;21.39;52.18
73558;BME280;61829;53.286;10.434;2023-09-19T09:34:49;100524.59;;;21.47;51.54
73558;BME280;61829;53.286;10.434;2023-09-19T09:37:18;100521.91;;;21.52;51.27
73558;BME280;61829;53.286;10.434;2023-09-19T09:39:52;100517.59;;;21.67;51.35
73558;BME280;61829;53.286;10.434;2023-09-19T09:42:35;100531.06;;;21.73;50.26
73558;BME280;61829;53.286;10.434;2023-09-19T09:45:20;100526.66;;;21.72;50.74
73558;BME280;61829;53.286;10.434;2023-09-19T09:47:59;100537.38;;;21.79;50.59
73558;BME280;61829;53.286;10.434;2023-09-19T09:50:30;100521.28;;;21.93;49.37
73558;BME280;61829;53.286;10.434;2023-09-19T09:53:27;100535.28;;;22.02;49.14
73558;BME280;61829;53.286;10.434;2023-09-19T09:56:05;100545.22;;;22.13;48.12
73558;BME280;61829;53.286;10.434;2023-09-19T09:58:38;100538.63;;;22.09;48.35
73558;BME280;61829;53.286;10.434;2023-09-19T10:01:14;100525.19;;;22.12;48.36
73558;BME280;61829;53.286;10.434;2023-09-19T10:03:42;100532.31;;;22.13;48.86
73558;BME280;61829;53.286;10.434;2023-09-19T10:06:17;100534.25;;;22.13;47.43
73558;BME280;61829;53.286;10.434;2023-09-19T10:11:47;100536.84;;;21.82;48.78
73558;BME280;61829;53.286;10.434;2023-09-19T10:14:16;100534.16;;;21.92;48.78
73558;BME280;61829;53.286;10.434;2023-09-19T10:16:47;100538.28;;;21.90;48.15
73558;BME280;61829;53.286;10.434;2023-09-19T10:19:23;100543.44;;;21.81;47.37
73558;BME280;61829;53.286;10.434;2023-09-19T10:21:50;100546.25;;;21.96;48.10
73558;BME280;61829;53.286;10.434;2023-09-19T10:24:20;100547.63;;;21.94;47.86
73558;BME280;61829;53.286;10.434;2023-09-19T10:26:47;100549.00;;;21.96;49.14
73558;BME280;61829;53.286;10.434;2023-09-19T10:29:17;100548.47;;;22.00;49.00
73558;BME280;61829;53.286;10.434;2023-09-19T10:31:47;100552.31;;;21.98;49.24
73558;BME280;61829;53.286;10.434;2023-09-19T10:34:14;100554.81;;;22.10;48.99
73558;BME280;61829;53.286;10.434;2023-09-19T10:36:44;100552.44;;;22.24;49.19
73558;BME280;61829;53.286;10.434;2023-09-19T10:39:14;100570.00;;;22.23;48.03
73558;BME280;61829;53.286;10.434;2023-09-19T10:41:49;100565.44;;;21.96;47.69
73558;BME280;61829;53.286;10.434;2023-09-19T10:44:24;100570.34;;;21.84;48.22
73558;BME280;61829;53.286;10.434;2023-09-19T10:46:52;100561.81;;;21.81;48.90
73558;BME280;61829;53.286;10.434;2023-09-19T10:49:19;100563.16;;;21.73;49.47
73558;BME280;61829;53.286;10.434;2023-09-19T10:51:45;100558.88;;;21.92;48.59
73558;BME280;61829;53.286;10.434;2023-09-19T10:54:17;100559.47;;;22.00;48.85
73558;BME280;61829;53.286;10.434;2023-09-19T10:56:51;100553.13;;;21.94;47.87
73558;BME280;61829;53.286;10.434;2023-09-19T10:59:21;100564.41;;;22.03;48.92
73558;BME280;61829;53.286;10.434;2023-09-19T11:01:48;100556.69;;;21.94;47.58
73558;BME280;61829;53.286;10.434;2023-09-19T11:04:30;100562.72;;;21.91;47.52
73558;BME280;61829;53.286;10.434;2023-09-19T11:09:54;100555.47;;;21.75;46.12
73558;BME280;61829;53.286;10.434;2023-09-19T11:14:55;100561.84;;;21.91;47.47
73558;BME280;61829;53.286;10.434;2023-09-19T11:17:34;100568.16;;;21.86;46.05
73558;BME280;61829;53.286;10.434;2023-09-19T11:30:32;100572.53;;;21.87;46.40
73558;BME280;61829;53.286;10.434;2023-09-19T11:33:18;100560.25;;;21.95;45.61
73558;BME280;61829;53.286;10.434;2023-09-19T11:49:18;100565.97;;;21.83;47.35
73558;BME280;61829;53.286;10.434;2023-09-19T11:51:51;100561.53;;;21.77;46.30
73558;BME280;61829;53.286;10.434;2023-09-19T11:54:17;100562.34;;;21.78;47.52
73558;BME280;61829;53.286;10.434;2023-09-19T11:56:53;100543.09;;;21.67;46.67
73558;BME280;61829;53.286;10.434;2023-09-19T11:59:30;100552.19;;;21.73;46.75
73558;BME280;61829;53.286;10.434;2023-09-19T12:01:57;100552.00;;;21.90;47.44
73558;BME280;61829;53.286;10.434;2023-09-19T12:04:43;100542.16;;;21.94;47.60
73558;BME280;61829;53.286;10.434;2023-09-19T12:07:12;100540.19;;;21.89;46.20
73558;BME280;61829;53.286;10.434;2023-09-19T12:09:49;100551.38;;;21.78;47.00
73558;BME280;61829;53.286;10.434;2023-09-19T12:12:26;100550.31;;;21.84;46.58
73558;BME280;61829;53.286;10.434;2023-09-19T12:14:54;100549.50;;;21.83;47.56
73558;BME280;61829;53.286;10.434;2023-09-19T12:17:20;100550.03;;;21.85;47.63
73558;BME280;61829;53.286;10.434;2023-09-19T12:19:55;100543.44;;;21.81;47.11
73558;BME280;61829;53.286;10.434;2023-09-19T12:22:22;100534.41;;;21.91;47.54
73558;BME280;61829;53.286;10.434;2023-09-19T12:24:48;100542.38;;;21.87;47.29
73558;BME280;61829;53.286;10.434;2023-09-19T12:27:16;100540.22;;;21.94;47.06
73558;BME280;61829;53.286;10.434;2023-09-19T12:29:46;100536.56;;;21.79;46.65
73558;BME280;61829;53.286;10.434;2023-09-19T12:32:15;100533.81;;;21.79;47.41
73558;BME280;61829;53.286;10.434;2023-09-19T12:34:51;100538.56;;;21.88;47.02
73558;BME280;61829;53.286;10.434;2023-09-19T12:37:18;100538.88;;;22.07;47.51
73558;BME280;61829;53.286;10.434;2023-09-19T12:39:51;100530.38;;;22.04;46.52
73558;BME280;61829;53.286;10.434;2023-09-19T12:42:25;100525.16;;;22.07;45.87
73558;BME280;61829;53.286;10.434;2023-09-19T12:44:57;100538.59;;;22.04;46.70
73558;BME280;61829;53.286;10.434;2023-09-19T12:47:28;100528.72;;;21.97;45.97
73558;BME280;61829;53.286;10.434;2023-09-19T12:50:15;100533.88;;;21.89;46.59
73558;BME280;61829;53.286;10.434;2023-09-19T12:52:46;100537.50;;;22.00;46.81
73558;BME280;61829;53.286;10.434;2023-09-19T12:55:28;100536.97;;;22.03;46.45
73558;BME280;61829;53.286;10.434;2023-09-19T13:00:43;100542.00;;;22.21;47.30
73558;BME280;61829;53.286;10.434;2023-09-19T13:03:26;100545.22;;;22.13;45.19
73558;BME280;61829;53.286;10.434;2023-09-19T13:05:56;100538.31;;;22.00;45.27
73558;BME280;61829;53.286;10.434;2023-09-19T13:08:28;100534.72;;;21.94;45.88
73558;BME280;61829;53.286;10.434;2023-09-19T13:13:37;100531.44;;;21.97;46.48
73558;BME280;61829;53.286;10.434;2023-09-19T13:16:03;100530.91;;;22.01;45.14
73558;BME280;61829;53.286;10.434;2023-09-19T13:18:55;100536.97;;;22.03;45.59
73558;BME280;61829;53.286;10.434;2023-09-19T13:21:29;100522.41;;;22.07;46.78
73558;BME280;61829;53.286;10.434;2023-09-19T13:24:18;100540.25;;;22.00;45.68
73558;BME280;61829;53.286;10.434;2023-09-19T13:26:44;100523.72;;;21.84;45.37
73558;BME280;61829;53.286;10.434;2023-09-19T13:29:10;100525.34;;;21.80;45.42
73558;BME280;61829;53.286;10.434;2023-09-19T13:31:35;100520.94;;;21.79;46.70
73558;BME280;61829;53.286;10.434;2023-09-19T13:34:03;100515.19;;;21.81;46.73
73558;BME280;61829;53.286;10.434;2023-09-19T13:36:29;100513.88;;;21.88;46.75
73558;BME280;61829;53.286;10.434;2023-09-19T13:38:55;100521.53;;;21.86;46.38
73558;BME280;61829;53.286;10.434;2023-09-19T13:41:21;100514.91;;;21.77;45.37
73558;BME280;61829;53.286;10.434;2023-09-19T13:43:47;100504.47;;;21.79;46.21
73558;BME280;61829;53.286;10.434;2023-09-19T13:46:14;100510.56;;;21.86;46.96
73558;BME280;61829;53.286;10.434;2023-09-19T13:48:42;100505.09;;;21.96;46.47
73558;BME280;61829;53.286;10.434;2023-09-19T13:51:07;100502.31;;;21.86;45.39
73558;BME280;61829;53.286;10.434;2023-09-19T13:53:33;100513.81;;;21.78;46.12
73558;BME280;61829;53.286;10.434;2023-09-19T13:56:01;100510.19;;;21.67;46.47
73558;BME280;61829;53.286;10.434;2023-09-19T13:58:26;100505.50;;;21.68;45.96
73558;BME280;61829;53.286;10.434;2023-09-19T14:00:53;100510.72;;;21.64;46.79